createdAt,value
2019-04-21T00:01:35.746Z,12.37
2019-04-21T00:03:15.133Z,12.31
2019-04-21T00:04:58.015Z,12.34
2019-04-21T00:06:51.101Z,12.32
2019-04-21T00:08:27.241Z,12.35
2019-04-21T00:10:02.581Z,12.38
2019-04-21T00:11:34.295Z,12.32
2019-04-21T00:13:08.146Z,12.27
2019-04-21T00:14:43.596Z,12.22
2019-04-21T00:16:15.307Z,12.15
2019-04-21T00:17:58.874Z,12.12
2019-04-21T00:19:40.869Z,12.25
2019-04-21T00:21:26.570Z,12.13
2019-04-21T00:23:13.035Z,12.19
2019-04-21T00:24:51.952Z,12.22
2019-04-21T00:26:33.293Z,12.34
2019-04-21T00:28:16.826Z,12.37
2019-04-21T00:29:51.783Z,12.27
2019-04-21T00:31:32.300Z,12.08
2019-04-21T00:33:00.206Z,12.07
2019-04-21T00:34:27.987Z,12.00
2019-04-21T00:36:12.606Z,11.97
2019-04-21T00:38:00.306Z,11.80
2019-04-21T00:39:43.365Z,11.78
2019-04-21T00:41:13.696Z,11.80
2019-04-21T00:42:48.918Z,11.71
2019-04-21T00:44:21.524Z,11.77
2019-04-21T00:46:02.227Z,11.72
2019-04-21T00:47:38.811Z,11.66
2019-04-21T00:49:19.702Z,11.73
2019-04-21T00:51:18.426Z,11.62
2019-04-21T00:54:41.736Z,11.87
2019-04-21T00:56:16.674Z,11.96
2019-04-21T00:57:51.924Z,11.99
2019-04-21T00:59:28.621Z,11.90
2019-04-21T01:01:03.204Z,11.95
2019-04-21T01:02:44.481Z,11.94
2019-04-21T01:04:15.259Z,11.99
2019-04-21T01:07:34.389Z,12.04
2019-04-21T01:09:02.676Z,12.08
2019-04-21T01:10:35.918Z,12.03
2019-04-21T01:12:19.559Z,12.05
2019-04-21T01:13:58.270Z,11.96
2019-04-21T01:17:19.215Z,11.92
2019-04-21T01:18:50.555Z,11.92
2019-04-21T01:20:16.078Z,11.83
2019-04-21T01:21:44.057Z,11.80
2019-04-21T01:23:19.597Z,11.84
2019-04-21T01:25:04.313Z,11.75
2019-04-21T01:26:43.983Z,11.69
2019-04-21T01:28:24.150Z,11.75
2019-04-21T01:30:08.505Z,11.72
2019-04-21T01:31:41.919Z,11.62
2019-04-21T01:33:25.986Z,11.48
2019-04-21T01:34:57.963Z,11.52
2019-04-21T01:36:33.460Z,11.46
2019-04-21T01:38:14.628Z,11.37
2019-04-21T01:39:58.511Z,11.30
2019-04-21T01:41:31.378Z,11.26
2019-04-21T01:43:04.941Z,11.23
2019-04-21T01:44:46.161Z,11.22
2019-04-21T01:46:22.510Z,11.18
2019-04-21T01:48:03.595Z,11.24
2019-04-21T01:49:29.595Z,11.11
2019-04-21T01:51:12.933Z,11.07
2019-04-21T01:53:02.117Z,11.03
2019-04-21T01:55:00.381Z,10.97
2019-04-21T01:57:02.044Z,10.91
2019-04-21T01:58:28.945Z,11.01
2019-04-21T02:00:08.448Z,10.95
2019-04-21T02:01:52.424Z,10.93
2019-04-21T02:03:41.623Z,11.00
2019-04-21T02:05:13.751Z,11.05
2019-04-21T02:06:44.542Z,11.14
2019-04-21T02:08:21.620Z,11.01
2019-04-21T02:10:04.821Z,11.04
2019-04-21T02:11:35.489Z,10.98
2019-04-21T02:13:13.162Z,11.04
2019-04-21T02:15:04.562Z,11.10
2019-04-21T02:16:34.579Z,11.18
2019-04-21T02:18:15.862Z,11.17
2019-04-21T02:19:41.046Z,11.24
2019-04-21T02:21:20.391Z,11.22
2019-04-21T02:24:42.350Z,11.27
2019-04-21T02:26:16.390Z,11.22
2019-04-21T02:28:01.215Z,11.19
2019-04-21T02:29:34.778Z,11.11
2019-04-21T02:31:20.429Z,11.03
2019-04-21T02:33:00.098Z,11.04
2019-04-21T02:34:49.036Z,10.91
2019-04-21T02:36:26.569Z,11.06
2019-04-21T02:37:54.883Z,10.92
2019-04-21T02:39:30.433Z,10.86
2019-04-21T02:44:24.358Z,10.65
2019-04-21T02:45:56.211Z,10.55
2019-04-21T02:49:13.254Z,10.46
2019-04-21T02:50:46.902Z,10.67
2019-04-21T02:55:38.712Z,10.39
2019-04-21T02:57:22.670Z,10.40
2019-04-21T02:59:12.378Z,10.39
2019-04-21T03:00:59.679Z,10.48
2019-04-21T03:02:55.028Z,10.51
2019-04-21T03:04:53.192Z,10.49
2019-04-21T03:06:50.354Z,10.41
2019-04-21T03:08:33.699Z,10.55
2019-04-21T03:10:12.134Z,10.46
2019-04-21T03:11:45.416Z,10.37
2019-04-21T03:13:21.676Z,10.52
2019-04-21T03:15:13.775Z,10.50
2019-04-21T03:16:28.438Z,10.63
2019-04-21T03:19:51.945Z,10.60
2019-04-21T03:21:26.299Z,10.61
2019-04-21T03:23:15.790Z,10.69
2019-04-21T03:25:00.933Z,10.82
2019-04-21T03:26:27.297Z,10.69
2019-04-21T03:29:37.236Z,10.57
2019-04-21T03:34:51.308Z,10.36
2019-04-21T03:36:38.220Z,10.48
2019-04-21T03:37:39.751Z,10.43
2019-04-21T03:39:11.529Z,10.46
2019-04-21T03:41:05.195Z,10.49
2019-04-21T03:47:26.868Z,10.18
2019-04-21T03:50:33.419Z,10.09
2019-04-21T03:53:46.281Z,10.10
2019-04-21T03:55:48.708Z,9.99
2019-04-21T03:58:54.330Z,9.92
2019-04-21T04:00:35.906Z,9.84
2019-04-21T04:02:16.572Z,9.79
2019-04-21T04:06:03.684Z,9.73
2019-04-21T04:07:50.008Z,9.55
2019-04-21T04:09:28.416Z,9.50
2019-04-21T04:11:19.579Z,9.56
2019-04-21T04:12:48.405Z,9.54
2019-04-21T04:14:22.838Z,9.66
2019-04-21T04:15:56.455Z,9.62
2019-04-21T04:17:26.227Z,9.85
2019-04-21T04:22:23.404Z,10.04
2019-04-21T04:27:22.574Z,10.24
2019-04-21T04:28:54.657Z,10.26
2019-04-21T04:30:31.158Z,10.28
2019-04-21T04:33:57.476Z,10.40
2019-04-21T04:40:30.831Z,10.45
2019-04-21T04:44:11.386Z,10.48
2019-04-21T04:45:38.684Z,10.46
2019-04-21T04:47:28.852Z,10.48
2019-04-21T04:49:23.696Z,10.39
2019-04-21T04:50:49.292Z,10.33
2019-04-21T04:54:26.601Z,10.26
2019-04-21T04:56:01.381Z,10.21
2019-04-21T04:57:29.117Z,10.27
2019-04-21T05:00:43.586Z,10.38
2019-04-21T05:02:30.418Z,10.31
2019-04-21T05:03:56.615Z,10.29
2019-04-21T05:05:37.150Z,10.24
2019-04-21T05:07:16.991Z,10.17
2019-04-21T05:09:09.460Z,10.17
2019-04-21T05:12:25.178Z,10.13
2019-04-21T05:15:44.449Z,10.22
2019-04-21T05:17:59.129Z,10.34
2019-04-21T05:20:33.687Z,10.28
2019-04-21T05:22:17.341Z,10.31
2019-04-21T05:23:48.401Z,10.30
2019-04-21T05:25:23.768Z,10.38
2019-04-21T05:26:58.202Z,10.36
2019-04-21T05:28:42.082Z,10.46
2019-04-21T05:30:59.657Z,10.51
2019-04-21T05:32:41.629Z,10.57
2019-04-21T05:34:21.975Z,10.71
2019-04-21T05:36:20.438Z,10.78
2019-04-21T05:37:59.922Z,10.91
2019-04-21T05:39:48.024Z,11.00
2019-04-21T05:41:24.556Z,11.15
2019-04-21T05:43:07.881Z,11.31
2019-04-21T05:46:38.665Z,11.63
2019-04-21T05:48:51.907Z,11.75
2019-04-21T05:50:19.425Z,11.95
2019-04-21T05:51:59.827Z,12.18
2019-04-21T05:53:36.169Z,12.36
2019-04-21T05:55:16.687Z,12.55
2019-04-21T05:56:55.003Z,12.80
2019-04-21T05:58:32.939Z,13.03
2019-04-21T06:00:12.500Z,13.23
2019-04-21T06:01:50.276Z,13.44
2019-04-21T06:03:29.355Z,13.57
2019-04-21T06:05:14.133Z,13.76
2019-04-21T06:06:43.955Z,13.99
2019-04-21T06:08:23.224Z,14.25
2019-04-21T06:11:36.246Z,14.71
2019-04-21T06:13:30.586Z,14.91
2019-04-21T06:15:01.034Z,15.08
2019-04-21T06:16:48.196Z,15.23
2019-04-21T06:18:20.347Z,15.33
2019-04-21T06:21:41.298Z,15.49
2019-04-21T06:23:25.453Z,15.63
2019-04-21T06:26:53.705Z,15.80
2019-04-21T06:28:11.948Z,15.80
2019-04-21T06:29:55.768Z,15.88
2019-04-21T06:32:08.772Z,15.84
2019-04-21T06:33:01.719Z,15.71
2019-04-21T06:35:01.160Z,15.87
2019-04-21T06:36:44.650Z,15.83
2019-04-21T06:38:21.302Z,15.84
2019-04-21T06:40:06.396Z,15.81
2019-04-21T06:41:34.336Z,16.00
2019-04-21T06:43:24.670Z,15.96
2019-04-21T06:44:54.543Z,15.98
2019-04-21T06:46:30.972Z,15.98
2019-04-21T06:48:05.959Z,16.08
2019-04-21T06:49:40.108Z,16.12
2019-04-21T06:51:24.090Z,16.02
2019-04-21T06:53:00.795Z,16.17
2019-04-21T06:54:33.875Z,16.16
2019-04-21T06:56:18.846Z,16.19
2019-04-21T06:57:51.657Z,16.43
2019-04-21T06:59:29.403Z,16.30
2019-04-21T07:01:09.146Z,16.41
2019-04-21T07:03:08.337Z,16.53
2019-04-21T07:04:22.532Z,16.59
2019-04-21T07:06:03.526Z,16.57
2019-04-21T07:07:43.706Z,16.72
2019-04-21T07:09:41.370Z,16.50
2019-04-21T07:11:03.994Z,16.80
2019-04-21T07:12:47.938Z,16.86
2019-04-21T07:14:30.021Z,17.10
2019-04-21T07:16:05.020Z,17.13
2019-04-21T07:17:32.507Z,17.36
2019-04-21T07:19:21.808Z,17.52
2019-04-21T07:21:00.091Z,17.51
2019-04-21T07:23:07.570Z,17.63
2019-04-21T07:24:43.012Z,17.76
2019-04-21T07:28:52.678Z,17.99
2019-04-21T07:30:21.200Z,18.05
2019-04-21T07:32:02.672Z,18.21
2019-04-21T07:35:17.837Z,18.35
2019-04-21T07:36:54.869Z,18.70
2019-04-21T07:38:36.590Z,19.04
2019-04-21T07:40:12.401Z,19.21
2019-04-21T07:41:49.243Z,19.30
2019-04-21T07:43:31.443Z,19.56
2019-04-21T07:45:02.425Z,19.82
2019-04-21T07:46:42.763Z,19.80
2019-04-21T07:48:40.124Z,19.75
2019-04-21T07:50:22.816Z,19.88
2019-04-21T07:52:03.162Z,19.98
2019-04-21T07:53:55.791Z,19.75
2019-04-21T07:56:59.503Z,19.70
2019-04-21T07:58:55.069Z,19.84
2019-04-21T08:00:29.319Z,20.07
2019-04-21T08:02:01.176Z,20.31
2019-04-21T08:03:38.665Z,20.37
2019-04-21T08:05:28.010Z,20.27
2019-04-21T08:06:56.708Z,20.43
2019-04-21T08:08:34.204Z,20.46
2019-04-21T08:10:13.000Z,20.34
2019-04-21T08:11:45.754Z,20.51
2019-04-21T08:15:15.524Z,20.93
2019-04-21T08:17:04.865Z,20.95
2019-04-21T08:18:58.285Z,20.98
2019-04-21T08:20:18.737Z,21.02
2019-04-21T08:22:18.657Z,21.13
2019-04-21T08:23:55.234Z,21.18
2019-04-21T08:25:42.009Z,21.51
2019-04-21T08:27:23.518Z,21.75
2019-04-21T08:29:06.484Z,21.80
2019-04-21T08:30:37.889Z,22.17
2019-04-21T08:32:28.319Z,22.15
2019-04-21T08:34:00.651Z,22.20
2019-04-21T08:35:55.345Z,22.32
2019-04-21T08:37:18.766Z,22.13
2019-04-21T08:38:54.436Z,22.38
2019-04-21T08:40:36.897Z,22.59
2019-04-21T08:42:10.925Z,22.56
2019-04-21T08:44:02.216Z,22.39
2019-04-21T08:45:36.167Z,22.68
2019-04-21T08:47:12.959Z,22.94
2019-04-21T08:48:55.406Z,23.15
2019-04-21T08:50:33.897Z,23.06
2019-04-21T08:52:21.196Z,23.03
2019-04-21T08:53:57.544Z,23.07
2019-04-21T08:55:52.401Z,23.45
2019-04-21T08:57:50.736Z,23.44
2019-04-21T08:59:39.049Z,23.75
2019-04-21T09:01:30.330Z,23.89
2019-04-21T09:03:17.906Z,23.35
2019-04-21T09:04:54.173Z,23.40
2019-04-21T09:06:52.586Z,23.76
2019-04-21T09:08:15.263Z,23.92
2019-04-21T09:09:54.373Z,23.66
2019-04-21T09:11:30.688Z,23.95
2019-04-21T09:13:11.771Z,23.87
2019-04-21T09:14:54.198Z,23.98
2019-04-21T09:16:31.098Z,23.91
2019-04-21T09:18:08.499Z,23.60
2019-04-21T09:20:06.300Z,23.92
2019-04-21T09:21:37.436Z,23.80
2019-04-21T09:23:13.366Z,23.68
2019-04-21T09:24:53.536Z,23.77
2019-04-21T09:26:29.570Z,23.93
2019-04-21T09:28:04.319Z,23.93
2019-04-21T09:29:36.064Z,24.12
2019-04-21T09:31:06.631Z,24.51
2019-04-21T09:32:49.471Z,24.38
2019-04-21T09:34:32.126Z,23.84
2019-04-21T09:36:12.698Z,24.23
2019-04-21T09:38:13.323Z,24.32
2019-04-21T09:39:50.823Z,23.90
2019-04-21T09:41:25.797Z,24.34
2019-04-21T09:43:05.026Z,24.64
2019-04-21T09:44:45.769Z,24.20
2019-04-21T09:46:23.229Z,24.15
2019-04-21T09:48:06.163Z,24.39
2019-04-21T09:49:47.461Z,24.56
2019-04-21T09:51:25.883Z,24.44
2019-04-21T09:53:12.936Z,24.53
2019-04-21T09:54:52.078Z,24.75
2019-04-21T09:56:37.416Z,24.75
2019-04-21T09:58:15.141Z,24.95
2019-04-21T09:59:49.466Z,24.95
2019-04-21T10:01:32.218Z,25.04
2019-04-21T10:03:11.684Z,24.70
2019-04-21T10:04:44.717Z,24.95
2019-04-21T10:06:21.555Z,25.08
2019-04-21T10:07:57.508Z,25.41
2019-04-21T10:09:35.439Z,25.73
2019-04-21T10:11:14.168Z,25.77
2019-04-21T10:12:47.922Z,25.67
2019-04-21T10:14:26.397Z,25.74
2019-04-21T10:16:24.284Z,25.69
2019-04-21T10:18:06.262Z,25.52
2019-04-21T10:21:47.681Z,25.90
2019-04-21T10:23:30.103Z,26.14
2019-04-21T10:25:14.485Z,26.02
2019-04-21T10:26:49.335Z,25.82
2019-04-21T10:28:26.765Z,26.12
2019-04-21T10:30:05.709Z,26.24
2019-04-21T10:31:44.985Z,26.01
2019-04-21T10:33:26.307Z,26.18
2019-04-21T10:35:01.771Z,26.58
2019-04-21T10:36:47.024Z,26.67
2019-04-21T10:38:36.787Z,26.74
2019-04-21T10:40:07.417Z,27.07
2019-04-21T10:41:46.165Z,26.86
2019-04-21T10:43:35.680Z,27.04
2019-04-21T10:45:14.798Z,26.75
2019-04-21T10:46:55.909Z,26.81
2019-04-21T10:48:43.127Z,26.46
2019-04-21T10:50:24.582Z,26.47
2019-04-21T10:52:01.950Z,26.83
2019-04-21T10:53:41.007Z,26.22
2019-04-21T10:55:39.060Z,25.67
2019-04-21T10:57:02.110Z,25.90
2019-04-21T10:58:44.486Z,24.97
2019-04-21T11:00:24.006Z,24.98
2019-04-21T11:02:01.002Z,25.06
2019-04-21T11:03:48.918Z,25.28
2019-04-21T11:05:24.913Z,26.08
2019-04-21T11:07:19.998Z,26.59
2019-04-21T11:09:04.839Z,26.27
2019-04-21T11:10:50.106Z,26.61
2019-04-21T11:12:29.344Z,26.47
2019-04-21T11:14:04.419Z,26.39
2019-04-21T11:16:11.258Z,25.96
2019-04-21T11:17:54.529Z,25.16
2019-04-21T11:19:30.712Z,25.85
2019-04-21T11:21:06.997Z,25.93
2019-04-21T11:22:43.815Z,25.59
2019-04-21T11:24:20.860Z,25.79
2019-04-21T11:25:57.981Z,26.36
2019-04-21T11:27:40.542Z,26.63
2019-04-21T11:29:19.442Z,26.45
2019-04-21T11:30:58.695Z,26.35
2019-04-21T11:32:44.947Z,26.22
2019-04-21T11:34:23.080Z,26.04
2019-04-21T11:35:59.101Z,26.24
2019-04-21T11:37:46.195Z,26.48
2019-04-21T11:39:37.518Z,26.45
2019-04-21T11:41:07.673Z,26.17
2019-04-21T11:42:44.336Z,26.01
2019-04-21T11:44:29.010Z,25.95
2019-04-21T11:46:08.621Z,26.38
2019-04-21T11:48:26.155Z,26.66
2019-04-21T11:50:07.409Z,26.97
2019-04-21T11:51:51.652Z,26.33
2019-04-21T11:53:34.840Z,26.58
2019-04-21T11:55:20.652Z,26.87
2019-04-21T11:57:02.206Z,27.13
2019-04-21T11:58:39.921Z,27.27
2019-04-21T12:00:27.534Z,26.34
2019-04-21T12:02:07.718Z,25.70
2019-04-21T12:03:43.300Z,26.33
2019-04-21T12:05:23.521Z,26.22
2019-04-21T12:07:04.993Z,26.43
2019-04-21T12:08:45.730Z,26.21
2019-04-21T12:10:19.598Z,25.57
2019-04-21T12:11:54.868Z,25.31
2019-04-21T12:13:34.176Z,25.41
2019-04-21T12:15:12.418Z,25.59
2019-04-21T12:16:48.823Z,25.98
2019-04-21T12:18:29.915Z,26.18
2019-04-21T12:20:03.934Z,26.22
2019-04-21T12:21:53.514Z,26.18
2019-04-21T12:23:16.651Z,25.91
2019-04-21T12:24:53.799Z,25.82
2019-04-21T12:26:33.979Z,25.60
2019-04-21T12:28:19.595Z,25.45
2019-04-21T12:30:00.003Z,25.33
2019-04-21T12:32:10.405Z,25.82
2019-04-21T12:34:01.499Z,25.53
2019-04-21T12:35:37.899Z,25.45
2019-04-21T12:37:15.003Z,25.72
2019-04-21T12:38:57.819Z,25.83
2019-04-21T12:40:39.290Z,26.18
2019-04-21T12:42:14.814Z,25.68
2019-04-21T12:43:56.861Z,26.09
2019-04-21T12:45:35.909Z,25.86
2019-04-21T12:47:12.057Z,26.20
2019-04-21T12:48:53.731Z,26.25
2019-04-21T12:50:35.944Z,26.49
2019-04-21T12:52:19.864Z,26.36
2019-04-21T12:54:01.615Z,26.17
2019-04-21T12:55:44.856Z,26.29
2019-04-21T12:57:21.425Z,26.54
2019-04-21T12:59:06.110Z,25.79
2019-04-21T13:00:42.875Z,25.31
2019-04-21T13:02:27.473Z,25.15
2019-04-21T13:04:08.224Z,25.64
2019-04-21T13:05:51.706Z,25.67
2019-04-21T13:07:28.237Z,26.13
2019-04-21T13:09:08.686Z,25.89
2019-04-21T13:10:42.277Z,26.04
2019-04-21T13:12:19.720Z,25.63
2019-04-21T13:13:58.267Z,25.57
2019-04-21T13:15:39.785Z,25.60
2019-04-21T13:17:21.397Z,25.87
2019-04-21T13:19:07.095Z,26.07
2019-04-21T13:20:44.387Z,25.59
2019-04-21T13:22:27.887Z,25.19
2019-04-21T13:24:15.822Z,25.43
2019-04-21T13:25:52.344Z,25.84
2019-04-21T13:27:28.864Z,25.78
2019-04-21T13:29:06.412Z,25.88
2019-04-21T13:30:44.427Z,25.92
2019-04-21T13:32:20.377Z,26.29
2019-04-21T13:33:59.932Z,26.42
2019-04-21T13:35:41.311Z,26.10
2019-04-21T13:37:17.542Z,26.27
2019-04-21T13:39:44.720Z,25.87
2019-04-21T13:41:29.664Z,25.79
2019-04-21T13:42:55.094Z,25.82
2019-04-21T13:44:30.872Z,25.97
2019-04-21T13:46:09.867Z,25.99
2019-04-21T13:47:48.406Z,25.69
2019-04-21T13:49:25.265Z,25.82
2019-04-21T13:51:02.439Z,25.62
2019-04-21T13:52:40.806Z,25.59
2019-04-21T13:54:17.997Z,25.92
2019-04-21T13:55:58.520Z,25.96
2019-04-21T13:57:34.657Z,25.96
2019-04-21T13:59:10.598Z,26.03
2019-04-21T14:00:47.750Z,25.76
2019-04-21T14:02:28.985Z,25.72
2019-04-21T14:04:05.314Z,25.52
2019-04-21T14:05:44.514Z,25.24
2019-04-21T14:07:20.997Z,25.20
2019-04-21T14:08:57.030Z,25.11
2019-04-21T14:10:35.615Z,25.29
2019-04-21T14:12:23.700Z,25.63
2019-04-21T14:14:00.623Z,25.73
2019-04-21T14:15:37.846Z,25.28
2019-04-21T14:17:19.153Z,25.73
2019-04-21T14:19:03.473Z,25.35
2019-04-21T14:20:51.243Z,25.31
2019-04-21T14:22:38.079Z,25.30
2019-04-21T14:24:20.483Z,25.54
2019-04-21T14:25:57.519Z,25.79
2019-04-21T14:27:50.311Z,25.71
2019-04-21T14:29:27.888Z,25.14
2019-04-21T14:31:08.411Z,25.42
2019-04-21T14:32:49.920Z,25.56
2019-04-21T14:34:34.034Z,25.75
2019-04-21T14:36:14.835Z,25.87
2019-04-21T14:38:04.861Z,26.00
2019-04-21T14:39:50.497Z,26.10
2019-04-21T14:41:17.872Z,25.82
2019-04-21T14:42:56.207Z,25.94
2019-04-21T14:44:49.160Z,25.77
2019-04-21T14:46:51.369Z,25.84
2019-04-21T14:48:52.977Z,25.71
2019-04-21T14:50:50.428Z,25.73
2019-04-21T14:52:44.273Z,25.86
2019-04-21T14:54:40.558Z,25.95
2019-04-21T14:56:21.620Z,26.34
2019-04-21T14:57:59.061Z,26.04
2019-04-21T14:59:39.266Z,26.23
2019-04-21T15:01:15.733Z,26.00
2019-04-21T15:02:51.842Z,26.12
2019-04-21T15:04:31.561Z,26.01
2019-04-21T15:06:07.873Z,25.85
2019-04-21T15:07:45.445Z,25.89
2019-04-21T15:09:22.996Z,25.76
2019-04-21T15:11:00.982Z,25.57
2019-04-21T15:12:38.171Z,25.80
2019-04-21T15:14:15.793Z,25.76
2019-04-21T15:15:54.319Z,25.77
2019-04-21T15:17:31.811Z,25.88
2019-04-21T15:19:08.617Z,25.79
2019-04-21T15:20:47.269Z,25.66
2019-04-21T15:22:26.089Z,25.78
2019-04-21T15:24:02.470Z,25.72
2019-04-21T15:25:39.116Z,25.60
2019-04-21T15:27:18.907Z,25.72
2019-04-21T15:28:57.053Z,25.72
2019-04-21T15:30:48.612Z,25.85
2019-04-21T15:32:28.478Z,25.86
2019-04-21T15:34:25.962Z,25.87
2019-04-21T15:36:11.084Z,25.67
2019-04-21T15:37:46.540Z,25.54
2019-04-21T15:39:31.796Z,25.43
2019-04-21T15:41:16.546Z,25.21
2019-04-21T15:42:54.700Z,24.90
2019-04-21T15:44:30.599Z,24.81
2019-04-21T15:46:10.971Z,24.76
2019-04-21T15:47:47.575Z,24.61
2019-04-21T15:49:24.986Z,24.29
2019-04-21T15:51:03.620Z,24.26
2019-04-21T15:52:53.850Z,24.08
2019-04-21T15:54:34.275Z,24.03
2019-04-21T15:56:17.215Z,23.88
2019-04-21T15:58:16.507Z,23.60
2019-04-21T16:00:11.231Z,23.64
2019-04-21T16:02:06.434Z,23.44
2019-04-21T16:03:44.767Z,23.37
2019-04-21T16:05:20.687Z,23.03
2019-04-21T16:06:59.456Z,23.06
2019-04-21T16:08:53.820Z,23.04
2019-04-21T16:10:37.404Z,23.05
2019-04-21T16:12:04.081Z,23.00
2019-04-21T16:13:39.681Z,22.93
2019-04-21T16:15:22.859Z,22.85
2019-04-21T16:17:01.459Z,22.77
2019-04-21T16:18:38.383Z,22.75
2019-04-21T16:20:15.594Z,22.72
2019-04-21T16:21:53.002Z,22.60
2019-04-21T16:23:32.741Z,22.60
2019-04-21T16:25:10.621Z,22.53
2019-04-21T16:27:06.891Z,22.48
2019-04-21T16:28:50.860Z,22.51
2019-04-21T16:30:29.017Z,22.51
2019-04-21T16:32:05.021Z,22.44
2019-04-21T16:33:43.355Z,22.38
2019-04-21T16:35:20.538Z,22.33
2019-04-21T16:37:01.411Z,22.13
2019-04-21T16:38:37.722Z,22.15
2019-04-21T16:40:17.147Z,22.14
2019-04-21T16:42:00.584Z,22.22
2019-04-21T16:43:39.033Z,22.22
2019-04-21T16:45:22.942Z,22.15
2019-04-21T16:47:05.429Z,22.21
2019-04-21T16:48:49.602Z,22.09
2019-04-21T16:50:29.869Z,22.00
2019-04-21T16:52:48.437Z,22.01
2019-04-21T16:54:31.635Z,21.93
2019-04-21T16:56:26.932Z,21.78
2019-04-21T16:58:23.369Z,21.81
2019-04-21T17:00:02.479Z,21.71
2019-04-21T17:01:40.533Z,21.55
2019-04-21T17:03:28.861Z,21.39
2019-04-21T17:05:06.604Z,21.31
2019-04-21T17:06:45.002Z,21.33
2019-04-21T17:08:26.077Z,21.37
2019-04-21T17:10:17.025Z,21.42
2019-04-21T17:12:09.251Z,21.38
2019-04-21T17:13:47.320Z,21.26
2019-04-21T17:15:51.494Z,21.15
2019-04-21T17:17:37.423Z,21.04
2019-04-21T17:19:11.376Z,20.98
2019-04-21T17:20:47.414Z,20.91
2019-04-21T17:22:29.431Z,20.91
2019-04-21T17:24:06.484Z,20.95
2019-04-21T17:25:53.068Z,21.03
2019-04-21T17:27:54.506Z,21.08
2019-04-21T17:29:43.063Z,21.13
2019-04-21T17:31:20.301Z,21.11
2019-04-21T17:33:03.577Z,21.14
2019-04-21T17:34:41.056Z,21.12
2019-04-21T17:36:18.920Z,21.08
2019-04-21T17:37:56.253Z,20.95
2019-04-21T17:39:38.606Z,20.82
2019-04-21T17:41:25.040Z,20.77
2019-04-21T17:43:02.130Z,20.62
2019-04-21T17:44:47.680Z,20.52
2019-04-21T17:46:36.595Z,20.42
2019-04-21T17:48:21.170Z,20.29
2019-04-21T17:50:29.376Z,20.20
2019-04-21T17:52:34.419Z,20.14
2019-04-21T17:54:20.924Z,20.11
2019-04-21T17:56:20.658Z,19.99
2019-04-21T17:57:54.502Z,19.86
2019-04-21T18:00:04.232Z,19.71
2019-04-21T18:01:32.150Z,19.64
2019-04-21T18:03:25.305Z,19.57
2019-04-21T18:05:22.634Z,19.57
2019-04-21T18:07:05.166Z,19.37
2019-04-21T18:09:02.604Z,19.24
2019-04-21T18:10:43.370Z,19.10
2019-04-21T18:12:29.193Z,18.92
2019-04-21T18:13:51.409Z,18.83
2019-04-21T18:15:47.032Z,18.75
2019-04-21T18:17:14.048Z,18.62
2019-04-21T18:18:50.970Z,18.52
2019-04-21T18:20:33.537Z,18.45
2019-04-21T18:22:33.054Z,18.36
2019-04-21T18:24:13.192Z,18.25
2019-04-21T18:25:58.601Z,18.01
2019-04-21T18:27:27.821Z,17.81
2019-04-21T18:29:07.611Z,17.60
2019-04-21T18:30:54.089Z,17.43
2019-04-21T18:32:38.557Z,17.27
2019-04-21T18:34:32.329Z,17.11
2019-04-21T18:36:34.833Z,17.02
2019-04-21T18:38:21.915Z,16.93
2019-04-21T18:40:02.676Z,16.83
2019-04-21T18:42:04.884Z,16.89
2019-04-21T18:43:59.865Z,16.90
2019-04-21T18:45:48.003Z,16.86
2019-04-21T18:47:31.912Z,16.71
2019-04-21T18:49:11.180Z,16.52
2019-04-21T18:51:20.357Z,16.53
2019-04-21T18:53:16.996Z,16.45
2019-04-21T18:54:58.263Z,16.32
2019-04-21T18:56:25.329Z,16.20
2019-04-21T18:58:05.697Z,16.09
2019-04-21T18:59:45.553Z,16.09
2019-04-21T19:01:26.280Z,16.03
2019-04-21T19:03:00.188Z,15.90
2019-04-21T19:04:43.109Z,15.80
2019-04-21T19:06:32.218Z,15.80
2019-04-21T19:08:16.156Z,15.63
2019-04-21T19:10:14.373Z,15.50
2019-04-21T19:11:42.894Z,15.44
2019-04-21T19:13:37.969Z,15.36
2019-04-21T19:15:07.622Z,15.23
2019-04-21T19:16:47.279Z,15.10
2019-04-21T19:18:43.655Z,15.01
2019-04-21T19:20:14.408Z,14.84
2019-04-21T19:21:50.531Z,14.59
2019-04-21T19:23:43.164Z,14.54
2019-04-21T19:25:07.332Z,14.42
2019-04-21T19:26:52.458Z,14.42
2019-04-21T19:28:16.406Z,14.35
2019-04-21T19:30:13.525Z,14.33
2019-04-21T19:31:45.485Z,14.30
2019-04-21T19:33:21.624Z,14.20
2019-04-21T19:34:45.540Z,14.17
2019-04-21T19:36:19.443Z,14.05
2019-04-21T19:38:01.192Z,13.95
2019-04-21T19:39:43.383Z,13.76
2019-04-21T19:41:30.041Z,13.68
2019-04-21T19:43:00.933Z,13.60
2019-04-21T19:44:47.123Z,13.54
2019-04-21T19:46:26.453Z,13.39
2019-04-21T19:48:08.082Z,13.20
2019-04-21T19:49:45.646Z,13.00
2019-04-21T19:51:18.351Z,12.84
2019-04-21T19:52:51.982Z,12.67
2019-04-21T19:54:25.243Z,12.49
2019-04-21T19:56:00.437Z,12.34
2019-04-21T19:57:47.072Z,12.18
2019-04-21T19:59:30.893Z,12.08
2019-04-21T20:01:01.606Z,11.94
2019-04-21T20:02:40.482Z,11.82
2019-04-21T20:04:16.745Z,11.70
2019-04-21T20:06:03.157Z,11.56
2019-04-21T20:07:48.267Z,11.49
2019-04-21T20:09:32.516Z,11.52
2019-04-21T20:11:23.842Z,11.45
2019-04-21T20:13:08.787Z,11.63
2019-04-21T20:14:55.737Z,11.57
2019-04-21T20:16:27.311Z,11.49
2019-04-21T20:18:02.323Z,11.43
2019-04-21T20:19:26.663Z,11.40
2019-04-21T20:21:02.075Z,11.40
2019-04-21T20:22:43.164Z,11.31
2019-04-21T20:24:28.813Z,11.41
2019-04-21T20:26:09.738Z,11.38
2019-04-21T20:27:55.409Z,11.45
2019-04-21T20:29:52.531Z,11.59
2019-04-21T20:31:23.605Z,11.58
2019-04-21T20:33:18.087Z,11.59
2019-04-21T20:34:49.031Z,11.55
2019-04-21T20:36:26.187Z,11.46
2019-04-21T20:38:11.412Z,11.42
2019-04-21T20:39:46.203Z,11.56
2019-04-21T20:41:29.763Z,11.61
2019-04-21T20:43:13.456Z,11.55
2019-04-21T20:44:55.817Z,11.58
2019-04-21T20:46:31.410Z,11.63
2019-04-21T20:47:53.961Z,11.87
2019-04-21T20:49:35.202Z,12.05
2019-04-21T20:51:28.378Z,12.35
2019-04-21T20:53:06.103Z,12.60
2019-04-21T20:54:43.709Z,12.83
2019-04-21T20:56:17.050Z,12.86
2019-04-21T20:57:53.744Z,12.85
2019-04-21T20:59:32.780Z,13.01
2019-04-21T21:01:41.443Z,13.03
2019-04-21T21:03:09.237Z,12.97
2019-04-21T21:04:32.666Z,13.20
2019-04-21T21:06:18.748Z,13.34
2019-04-21T21:08:03.835Z,13.46
2019-04-21T21:09:32.391Z,13.56
2019-04-21T21:11:08.292Z,13.62
2019-04-21T21:13:02.851Z,13.68
2019-04-21T21:14:42.316Z,13.82
2019-04-21T21:16:46.408Z,13.95
2019-04-21T21:18:41.102Z,13.99
2019-04-21T21:20:02.680Z,14.01
2019-04-21T21:21:39.995Z,14.00
2019-04-21T21:23:14.507Z,14.04
2019-04-21T21:24:57.139Z,14.06
2019-04-21T21:26:36.805Z,14.07
2019-04-21T21:28:09.012Z,14.19
2019-04-21T21:29:56.609Z,14.11
2019-04-21T21:31:37.288Z,14.17
2019-04-21T21:33:18.533Z,14.23
2019-04-21T21:35:02.874Z,14.26
2019-04-21T21:36:43.166Z,14.19
2019-04-21T21:38:21.010Z,14.26
2019-04-21T21:40:11.366Z,14.23
2019-04-21T21:41:32.365Z,14.31
2019-04-21T21:43:08.184Z,14.34
2019-04-21T21:44:50.522Z,14.34
2019-04-21T21:46:35.186Z,14.33
2019-04-21T21:48:11.277Z,14.34
2019-04-21T21:49:51.314Z,14.37
2019-04-21T21:51:19.216Z,14.35
2019-04-21T21:52:59.907Z,14.34
2019-04-21T21:54:43.497Z,14.41
2019-04-21T21:56:36.488Z,14.34
2019-04-21T21:58:13.827Z,14.38
2019-04-21T21:59:58.562Z,14.40
2019-04-21T22:01:37.960Z,14.35
2019-04-21T22:03:17.591Z,14.33
2019-04-21T22:04:55.794Z,14.32
2019-04-21T22:06:41.085Z,14.29
2019-04-21T22:08:07.996Z,14.30
2019-04-21T22:09:46.196Z,14.30
2019-04-21T22:11:22.157Z,14.26
2019-04-21T22:13:08.275Z,14.19
2019-04-21T22:14:44.662Z,14.18
2019-04-21T22:16:18.146Z,14.19
2019-04-21T22:18:16.771Z,14.09
2019-04-21T22:19:58.044Z,14.05
2019-04-21T22:21:26.124Z,14.17
2019-04-21T22:23:06.666Z,14.04
2019-04-21T22:25:00.776Z,14.00
2019-04-21T22:26:25.293Z,14.07
2019-04-21T22:28:02.182Z,14.07
2019-04-21T22:29:47.743Z,14.01
2019-04-21T22:31:24.572Z,13.94
2019-04-21T22:33:03.794Z,14.05
2019-04-21T22:34:44.138Z,13.99
2019-04-21T22:36:31.320Z,13.99
2019-04-21T22:38:10.646Z,13.99
2019-04-21T22:39:51.664Z,14.01
2019-04-21T22:41:19.007Z,13.94
2019-04-21T22:43:04.854Z,13.98
2019-04-21T22:44:32.191Z,13.96
2019-04-21T22:46:10.205Z,13.95
2019-04-21T22:47:46.532Z,13.92
2019-04-21T22:49:23.824Z,13.99
2019-04-21T22:51:00.591Z,14.00
2019-04-21T22:52:37.498Z,13.97
2019-04-21T22:54:22.242Z,13.97